Time;durP1;ratioP1;P1;durP2;ratioP2;P2;SDS_P1;SDS_P2;PMS_P1;PMS_P2;Temp;Humidity;BMP_temperature;BMP_pressure;BME280_temperature;BME280_humidity;BME280_pressure;Samples;Min_cycle;Max_cycle;Signal;HPM_P1;HPM_P2
2023/01/06 00:03:24;;;;;;;4.88;2.10;;;;;;;9.31;100.00;101709.22;10377508;28;20134;-80
2023/01/06 00:08:24;;;;;;;5.50;2.38;;;;;;;9.22;100.00;101715.63;10401448;28;20037;-80
2023/01/06 00:13:25;;;;;;;6.15;3.05;;;;;;;9.20;100.00;101705.88;10379959;28;20049;-79
2023/01/06 00:18:25;;;;;;;6.18;1.83;;;;;;;9.27;100.00;101681.97;10430507;28;20747;-80
2023/01/06 00:23:26;;;;;;;2.97;2.03;;;;;;;9.17;100.00;101674.31;10362689;28;20120;-79
2023/01/06 00:28:27;;;;;;;7.22;2.72;;;;;;;9.06;100.00;101671.00;10385412;28;20044;-80
2023/01/06 00:33:27;;;;;;;5.50;2.53;;;;;;;8.98;100.00;101670.47;10401261;28;20096;-79
2023/01/06 00:38:28;;;;;;;7.55;1.83;;;;;;;8.94;100.00;101671.06;10379688;28;20488;-80
2023/01/06 00:43:30;;;;;;;6.60;2.53;;;;;;;9.14;100.00;101654.16;10382902;28;20046;-80
2023/01/06 00:48:30;;;;;;;6.72;1.80;;;;;;;9.12;100.00;101658.34;10429924;28;20052;-80
2023/01/06 00:53:31;;;;;;;4.63;2.25;;;;;;;9.15;100.00;101652.41;10439842;28;20141;-80
2023/01/06 00:58:31;;;;;;;3.85;1.95;;;;;;;9.16;100.00;101649.00;10410181;28;20033;-81
2023/01/06 01:03:33;;;;;;;5.82;2.58;;;;;;;9.18;100.00;101655.22;10420872;28;20489;-80
2023/01/06 01:08:33;;;;;;;5.10;1.65;;;;;;;9.20;100.00;101645.78;10401457;28;20033;-80
2023/01/06 01:13:34;;;;;;;6.57;2.15;;;;;;;9.19;100.00;101652.75;10463361;28;20044;-81
2023/01/06 01:18:35;;;;;;;8.85;2.15;;;;;;;9.20;100.00;101656.25;10424795;28;20427;-81
2023/01/06 01:23:35;;;;;;;4.07;1.92;;;;;;;9.21;100.00;101648.53;10440542;28;20154;-81
2023/01/06 01:28:36;;;;;;;10.07;2.38;;;;;;;9.30;100.00;101647.31;10444373;28;20092;-81
2023/01/06 01:33:37;;;;;;;5.40;2.30;;;;;;;9.23;100.00;101644.31;10481755;28;20052;-80
2023/01/06 01:38:37;;;;;;;10.07;2.70;;;;;;;9.19;100.00;101646.59;10434046;28;20429;-81
2023/01/06 01:43:58;;;;;;;10.50;3.25;;;;;;;9.20;100.00;101643.19;10478879;28;20247;-81
2023/01/06 01:49:01;;;;;;;4.60;2.03;;;;;;;9.22;100.00;101639.88;10480435;28;20130;-81
2023/01/06 01:54:04;;;;;;;5.57;1.85;;;;;;;9.19;100.00;101642.28;10397995;28;20395;-80
2023/01/06 01:59:08;;;;;;;3.75;1.60;;;;;;;9.16;100.00;101628.13;10437156;28;20409;-81
2023/01/06 02:04:08;;;;;;;5.53;2.42;;;;;;;9.10;100.00;101629.50;10466089;28;20098;-81
2023/01/06 02:09:19;;;;;;;5.70;1.60;;;;;;;9.10;100.00;101616.47;10475994;28;20060;-81
2023/01/06 02:14:21;;;;;;;6.75;2.42;;;;;;;9.10;100.00;101615.56;10336131;28;20057;-81
2023/01/06 02:19:27;;;;;;;3.05;1.60;;;;;;;9.09;100.00;101614.66;10393680;28;20036;-82
2023/01/06 02:24:55;;;;;;;4.18;1.67;;;;;;;9.18;100.00;101600.38;10412548;28;20197;-81
2023/01/06 02:30:11;;;;;;;7.10;3.70;;;;;;;9.19;100.00;101579.59;10426112;28;20040;-81
2023/01/06 02:35:29;;;;;;;4.50;1.35;;;;;;;9.29;100.00;101565.41;10496489;28;20033;-80
2023/01/06 02:41:03;;;;;;;12.75;2.15;;;;;;;9.21;100.00;101571.84;10470348;28;20048;-80
2023/01/06 02:46:10;;;;;;;8.45;1.67;;;;;;;9.08;100.00;101555.38;10433864;28;20128;-81
2023/01/06 02:51:13;;;;;;;6.13;2.00;;;;;;;9.03;100.00;101553.31;10447929;28;20049;-80
2023/01/06 02:56:13;;;;;;;6.38;1.20;;;;;;;9.11;100.00;101545.16;10443042;28;20072;-79
2023/01/06 03:01:17;;;;;;;3.88;1.30;;;;;;;9.14;100.00;101533.09;10422730;28;20572;-80
2023/01/06 03:06:20;;;;;;;2.38;1.20;;;;;;;9.27;100.00;101527.84;10445482;28;20079;-80
2023/01/06 03:11:21;;;;;;;7.53;2.30;;;;;;;9.15;100.00;101520.16;10435173;28;20084;-79
2023/01/06 03:16:21;;;;;;;5.07;1.30;;;;;;;9.14;100.00;101518.34;10409750;28;20042;-80
2023/01/06 03:21:28;;;;;;;4.00;1.65;;;;;;;9.13;100.00;101528.66;10461289;28;20417;-81
2023/01/06 03:26:29;;;;;;;5.07;1.33;;;;;;;9.15;100.00;101514.91;10418275;28;20045;-80
2023/01/06 03:31:34;;;;;;;3.92;1.05;;;;;;;9.16;100.00;101515.81;10448061;28;20537;-81
2023/01/06 03:36:49;;;;;;;3.50;1.30;;;;;;;9.22;100.00;101516.19;10458294;28;20472;-80
2023/01/06 03:47:23;;;;;;;2.83;1.35;;;;;;;9.21;100.00;101510.09;10447363;28;20052;-81
2023/01/06 03:52:28;;;;;;;4.85;1.42;;;;;;;9.21;100.00;101520.53;10448325;28;20059;-80
2023/01/06 03:57:36;;;;;;;6.43;1.33;;;;;;;9.25;100.00;101506.88;10424429;28;20415;-80
2023/01/06 04:02:37;;;;;;;4.00;1.13;;;;;;;9.28;100.00;101505.25;10409869;28;20107;-80
2023/01/06 04:07:39;;;;;;;9.90;1.70;;;;;;;9.25;100.00;101500.72;10424293;28;20090;-80
2023/01/06 04:12:39;;;;;;;;;;;;;;;9.29;100.00;101494.00;10447527;28;20033;-81
2023/01/06 04:17:40;;;;;;;5.68;1.45;;;;;;;9.30;100.00;101501.03;10440110;28;20385;-80
2023/01/06 04:22:41;;;;;;;3.08;1.02;;;;;;;9.32;100.00;101494.19;10441632;28;20044;-80
2023/01/06 04:27:42;;;;;;;2.03;0.90;;;;;;;9.38;100.00;101491.97;10428196;28;20037;-80
2023/01/06 04:32:42;;;;;;;3.65;1.10;;;;;;;9.42;100.00;101490.44;10445007;28;20089;-83
2023/01/06 04:37:43;;;;;;;5.10;1.10;;;;;;;9.42;100.00;101465.22;10438405;28;20071;-80
2023/01/06 04:48:03;;;;;;;8.07;1.38;;;;;;;9.38;100.00;101474.56;10430572;28;20037;-79
2023/01/06 04:53:04;;;;;;;3.45;1.23;;;;;;;9.32;100.00;101473.28;10454545;28;20047;-80
2023/01/06 04:58:04;;;;;;;4.88;1.20;;;;;;;9.22;100.00;101466.56;10420395;28;20132;-81
2023/01/06 05:03:05;;;;;;;4.75;2.63;;;;;;;9.28;100.00;101474.78;10368251;28;20037;-81
2023/01/06 05:08:06;;;;;;;2.55;1.48;;;;;;;9.27;100.00;101467.75;10382475;28;20117;-81
2023/01/06 05:13:06;;;;;;;5.75;1.40;;;;;;;9.30;100.00;101451.41;10361822;28;20128;-79
2023/01/06 05:18:07;;;;;;;6.55;1.67;;;;;;;9.24;100.00;101454.50;10392039;28;20037;-79
2023/01/06 05:23:07;;;;;;;5.50;1.80;;;;;;;9.19;100.00;101442.88;10382409;28;20077;-80
2023/01/06 05:28:08;;;;;;;3.55;1.13;;;;;;;9.23;100.00;101437.97;10390455;28;20070;-80
2023/01/06 05:33:08;;;;;;;4.60;2.05;;;;;;;9.24;100.00;101434.53;10395180;28;20104;-80
2023/01/06 05:38:09;;;;;;;3.33;1.20;;;;;;;9.23;100.00;101429.19;10388648;28;20096;-80
2023/01/06 05:43:09;;;;;;;5.28;1.88;;;;;;;9.21;100.00;101443.88;10417733;28;20073;-80
2023/01/06 05:48:10;;;;;;;4.55;1.88;;;;;;;9.15;100.00;101447.03;10443605;28;20558;-79
2023/01/06 05:53:10;;;;;;;3.05;1.67;;;;;;;9.11;100.00;101440.69;10439852;28;20041;-79
2023/01/06 05:58:11;;;;;;;7.15;1.83;;;;;;;9.10;100.00;101441.50;10447699;28;20037;-83
2023/01/06 06:03:11;;;;;;;2.78;1.42;;;;;;;9.09;100.00;101447.53;10400437;28;20038;-80
2023/01/06 06:08:12;;;;;;;5.88;2.83;;;;;;;9.03;100.00;101447.13;10408622;28;20124;-81
2023/01/06 06:13:12;;;;;;;2.47;1.08;;;;;;;9.05;100.00;101449.88;10415669;28;20049;-79
2023/01/06 06:18:13;;;;;;;3.58;1.25;;;;;;;9.09;100.00;101450.13;10446816;28;20033;-81
2023/01/06 06:23:13;;;;;;;5.00;1.83;;;;;;;9.17;100.00;101432.34;10402611;28;20099;-81
2023/01/06 06:28:14;;;;;;;3.58;1.30;;;;;;;9.06;100.00;101418.59;10429021;28;20098;-81
2023/01/06 06:33:14;;;;;;;3.28;1.20;;;;;;;8.99;100.00;101424.25;10427022;28;20476;-79
2023/01/06 06:38:15;;;;;;;6.45;1.80;;;;;;;9.09;100.00;101428.34;10429056;28;20044;-79
2023/01/06 06:43:15;;;;;;;3.58;1.13;;;;;;;9.19;100.00;101435.03;10438311;28;20391;-79
2023/01/06 06:48:16;;;;;;;4.32;1.05;;;;;;;9.23;100.00;101432.72;10427741;28;20038;-78
2023/01/06 06:53:16;;;;;;;5.15;2.78;;;;;;;9.27;100.00;101431.19;10407633;28;20038;-79
2023/01/06 06:58:17;;;;;;;5.93;1.80;;;;;;;9.27;100.00;101432.91;10432203;28;20518;-78
2023/01/06 07:03:18;;;;;;;2.08;0.93;;;;;;;9.24;100.00;101433.63;10422200;28;20062;-81
2023/01/06 07:08:19;;;;;;;2.97;1.13;;;;;;;9.25;100.00;101438.03;10458657;28;20067;-80
2023/01/06 07:13:19;;;;;;;3.38;1.60;;;;;;;9.31;100.00;101435.81;10434373;28;20037;-80
2023/01/06 07:18:20;;;;;;;5.05;2.38;;;;;;;9.37;100.00;101436.19;10431528;28;20482;-79
2023/01/06 07:23:21;;;;;;;2.92;1.05;;;;;;;9.38;100.00;101413.59;10385432;28;20120;-80
2023/01/06 07:28:22;;;;;;;2.30;1.10;;;;;;;9.36;100.00;101423.94;10380032;28;20486;-80
2023/01/06 07:33:22;;;;;;;8.20;3.50;;;;;;;9.38;100.00;101434.50;10407208;28;20046;-80
2023/01/06 07:38:23;;;;;;;2.45;1.30;;;;;;;9.31;100.00;101435.81;10390256;28;20057;-79
2023/01/06 07:43:24;;;;;;;2.30;1.20;;;;;;;9.29;100.00;101452.19;10397069;28;20045;-81
2023/01/06 07:48:25;;;;;;;4.57;1.58;;;;;;;9.22;100.00;101463.97;10401022;28;20076;-80
2023/01/06 07:53:25;;;;;;;2.03;1.13;;;;;;;9.18;100.00;101469.81;10379141;28;20103;-79
2023/01/06 07:58:26;;;;;;;4.63;1.20;;;;;;;9.06;100.00;101478.66;10370468;28;20129;-79
2023/01/06 08:03:26;;;;;;;3.80;1.77;;;;;;;9.13;100.00;101494.72;10372139;28;20406;-79
2023/01/06 08:08:27;;;;;;;13.25;5.22;;;;;;;9.11;100.00;101494.63;10376610;28;20120;-78
2023/01/06 08:13:27;;;;;;;3.63;2.42;;;;;;;9.07;100.00;101508.31;10441628;28;20043;-78
2023/01/06 08:18:28;;;;;;;3.65;1.65;;;;;;;9.04;100.00;101513.34;10425316;28;20057;-79
2023/01/06 08:23:29;;;;;;;3.70;2.13;;;;;;;8.76;100.00;101530.69;10413697;28;20139;-78
2023/01/06 08:28:29;;;;;;;9.32;4.88;;;;;;;8.72;100.00;101538.25;10482813;28;20112;-78
2023/01/06 08:33:30;;;;;;;3.83;2.33;;;;;;;8.71;100.00;101539.94;10415331;28;20037;-79
2023/01/06 08:38:31;;;;;;;8.10;3.13;;;;;;;8.73;100.00;101540.06;10459374;28;20569;-79
2023/01/06 08:43:31;;;;;;;1.52;1.05;;;;;;;8.76;100.00;101556.81;10424414;28;20043;-79
2023/01/06 08:48:32;;;;;;;2.35;1.30;;;;;;;8.76;100.00;101558.53;10403718;28;20393;-79
2023/01/06 08:53:33;;;;;;;3.00;1.52;;;;;;;8.73;100.00;101563.53;10443549;28;20049;-79
2023/01/06 08:58:33;;;;;;;3.45;2.50;;;;;;;8.68;100.00;101583.22;10426936;28;20500;-79
2023/01/06 09:03:34;;;;;;;2.92;1.08;;;;;;;8.68;100.00;101589.31;10441458;28;20485;-79
2023/01/06 09:08:34;;;;;;;5.93;1.48;;;;;;;8.76;100.00;101588.13;10443192;28;20043;-79
2023/01/06 09:13:35;;;;;;;4.57;2.35;;;;;;;8.90;100.00;101594.28;10442349;28;20037;-79
2023/01/06 09:18:36;;;;;;;1.88;1.10;;;;;;;9.03;100.00;101608.13;10440528;28;20045;-79
2023/01/06 09:23:37;;;;;;;3.00;0.80;;;;;;;9.38;100.00;101601.69;10425441;28;20045;-79
2023/01/06 09:28:37;;;;;;;2.55;1.85;;;;;;;9.80;100.00;101591.22;10445418;28;20500;-79
2023/01/06 09:33:38;;;;;;;2.97;0.88;;;;;;;9.78;100.00;101595.47;10409747;28;20038;-80
2023/01/06 09:38:38;;;;;;;1.27;0.77;;;;;;;9.83;100.00;101605.41;10398770;28;20108;-79
2023/01/06 09:44:13;;;;;;;2.92;1.38;;;;;;;9.79;100.00;101608.66;10401452;28;20041;-79
2023/01/06 09:49:26;;;;;;;2.83;0.77;;;;;;;9.80;100.00;101620.00;10381743;28;20041;-79
2023/01/06 09:54:29;;;;;;;;;;;;;;;9.79;100.00;101621.72;10460944;28;20071;-80
2023/01/06 10:00:00;;;;;;;1.73;1.05;;;;;;;9.72;100.00;101629.06;10443317;28;20330;-79
2023/01/06 10:05:02;;;;;;;2.80;1.10;;;;;;;9.70;100.00;101623.75;10385241;28;20082;-78
2023/01/06 10:10:25;;;;;;;3.13;1.50;;;;;;;9.84;100.00;101630.75;10353485;28;20042;-79
2023/01/06 10:15:42;;;;;;;3.45;1.35;;;;;;;9.91;100.00;101634.63;10396741;28;20110;-79
2023/01/06 10:21:07;;;;;;;4.05;1.70;;;;;;;9.93;100.00;101629.53;10393584;28;20041;-80
2023/01/06 10:26:07;;;;;;;8.45;1.77;;;;;;;9.87;100.00;101643.09;10397370;28;20053;-79
2023/01/06 10:31:16;;;;;;;2.58;1.42;;;;;;;9.84;100.00;101637.69;10399967;28;20041;-83
2023/01/06 10:36:19;;;;;;;2.72;1.30;;;;;;;9.79;100.00;101640.00;10398091;28;20091;-80
2023/01/06 10:41:23;;;;;;;4.07;1.45;;;;;;;9.77;100.00;101630.25;10399022;28;20123;-80
2023/01/06 10:46:25;;;;;;;2.67;1.45;;;;;;;9.92;100.00;101623.38;10397965;28;20037;-82
2023/01/06 10:51:33;;;;;;;7.10;1.58;;;;;;;10.66;100.00;101611.28;10385565;28;20068;-81
2023/01/06 10:56:34;;;;;;;1.95;1.15;;;;;;;10.59;100.00;101611.75;10374544;28;20489;-80
2023/01/06 11:01:37;;;;;;;6.60;3.10;;;;;;;11.00;100.00;101600.16;10436745;28;20049;-81
2023/01/06 11:06:59;;;;;;;3.05;1.33;;;;;;;10.65;100.00;101604.25;10405407;28;20509;-82
2023/01/06 11:12:02;;;;;;;2.13;1.35;;;;;;;10.49;100.00;101598.91;10476409;28;20052;-82
2023/01/06 11:17:03;;;;;;;62.97;32.75;;;;;;;10.55;100.00;101601.91;10446902;28;20128;-83
2023/01/06 11:22:04;;;;;;;20.38;2.38;;;;;;;10.71;100.00;101590.59;10430393;28;20033;-82
2023/01/06 11:27:23;;;;;;;3.87;1.93;;;;;;;10.64;100.00;101602.44;10429330;28;20040;-82
2023/01/06 11:32:25;;;;;;;9.30;2.55;;;;;;;10.54;100.00;101593.13;10443616;28;20033;-82
2023/01/06 11:37:30;;;;;;;;;;;;;;;10.78;100.00;101591.88;10395632;28;20393;-82
2023/01/06 11:42:30;;;;;;;3.38;1.13;;;;;;;11.08;100.00;101570.88;10404551;28;20428;-82
2023/01/06 11:47:31;;;;;;;1.85;1.13;;;;;;;11.96;100.00;101564.31;10403320;28;20041;-82
2023/01/06 11:52:32;;;;;;;6.85;1.67;;;;;;;12.01;100.00;101566.38;10435652;28;20507;-81
2023/01/06 11:58:27;;;;;;;2.70;1.42;;;;;;;11.64;100.00;101566.97;10426273;28;20043;-82
2023/01/06 12:03:42;;;;;;;2.58;1.73;;;;;;;11.12;100.00;101560.66;10378772;28;20053;-82
2023/01/06 12:09:00;;;;;;;2.67;1.20;;;;;;;11.37;100.00;101563.75;10391259;28;20080;-81
2023/01/06 12:14:01;;;;;;;5.00;2.05;;;;;;;11.51;100.00;101560.19;10441175;28;20460;-81
2023/01/06 12:19:02;;;;;;;1.92;1.40;;;;;;;11.67;100.00;101556.66;10441575;28;20123;-81
2023/01/06 12:24:03;;;;;;;1.90;1.00;;;;;;;11.60;100.00;101559.78;10440287;28;20477;-82
2023/01/06 12:29:04;;;;;;;2.23;1.23;;;;;;;11.77;100.00;101563.31;10436940;28;20127;-81
2023/01/06 12:34:32;;;;;;;3.45;1.10;;;;;;;11.41;100.00;101565.75;10418715;28;20438;-81
2023/01/06 12:39:52;;;;;;;3.83;1.60;;;;;;;10.83;100.00;101564.25;10465384;28;20095;-80
2023/01/06 12:45:03;;;;;;;6.00;3.13;;;;;;;10.65;100.00;101577.16;10444973;28;20053;-81
2023/01/06 12:50:29;;;;;;;5.72;2.47;;;;;;;10.42;100.00;101589.78;10436663;28;20127;-82
2023/01/06 12:55:57;;;;;;;5.85;2.28;;;;;;;10.13;100.00;101599.34;10441224;28;20044;-83
2023/01/06 13:01:19;;;;;;;3.22;1.80;;;;;;;9.90;100.00;101604.06;10412106;28;20497;-81
2023/01/06 13:06:35;;;;;;;;;;;;;;;9.83;100.00;101614.94;10438253;28;20089;-81
2023/01/06 13:12:10;;;;;;;3.67;2.53;;;;;;;10.05;100.00;101621.50;10435734;28;20471;-79
2023/01/06 13:17:13;;;;;;;4.43;2.08;;;;;;;10.19;100.00;101614.53;10441655;28;20124;-80
2023/01/06 13:22:16;;;;;;;5.53;2.42;;;;;;;10.12;100.00;101622.00;10436014;28;20144;-78
2023/01/06 13:27:29;;;;;;;2.63;1.50;;;;;;;10.03;100.00;101621.44;10425105;28;20041;-80
2023/01/06 13:32:46;;;;;;;3.97;2.53;;;;;;;10.31;100.00;101625.75;10436020;28;20447;-81
2023/01/06 13:38:05;;;;;;;3.17;1.98;;;;;;;10.33;100.00;101613.66;10432010;28;20045;-84
2023/01/06 13:43:13;;;;;;;3.42;2.20;;;;;;;10.32;100.00;101600.47;10416093;28;20404;-83
2023/01/06 13:48:18;;;;;;;3.65;2.20;;;;;;;10.35;100.00;101596.34;10422904;28;20037;-81
2023/01/06 13:53:21;;;;;;;13.90;7.40;;;;;;;10.31;100.00;101593.44;10440068;28;20045;-81
2023/01/06 13:58:29;;;;;;;15.98;9.38;;;;;;;10.27;100.00;101585.41;10427579;28;20064;-81
2023/01/06 14:03:30;;;;;;;5.40;3.10;;;;;;;10.24;100.00;101590.44;10449587;28;20120;-82
2023/01/06 14:08:33;;;;;;;3.50;1.77;;;;;;;10.24;100.00;101584.31;10437496;28;20045;-81
2023/01/06 14:13:39;;;;;;;3.85;2.17;;;;;;;10.15;100.00;101584.66;10422868;28;20035;-82
2023/01/06 14:18:41;;;;;;;4.00;2.90;;;;;;;10.20;100.00;101593.69;10384972;28;20563;-81
2023/01/06 14:23:52;;;;;;;20.85;11.20;;;;;;;10.08;100.00;101591.25;10433146;28;20073;-82
2023/01/06 14:28:53;;;;;;;10.13;5.03;;;;;;;9.96;100.00;101591.38;10372848;28;20469;-82
2023/01/06 14:33:57;;;;;;;9.52;4.75;;;;;;;9.91;100.00;101597.13;10359627;28;20188;-82
2023/01/06 14:39:03;;;;;;;5.45;2.97;;;;;;;9.79;100.00;101598.19;10411473;28;20068;-82
2023/01/06 14:44:14;;;;;;;3.17;1.77;;;;;;;9.76;100.00;101597.06;10448989;28;20041;-83
2023/01/06 14:49:18;;;;;;;5.17;2.97;;;;;;;9.67;100.00;101600.03;10440327;28;20037;-83
2023/01/06 14:54:30;;;;;;;3.72;1.83;;;;;;;9.59;100.00;101598.63;10404343;28;20037;-82
2023/01/06 14:59:31;;;;;;;3.83;2.50;;;;;;;9.62;100.00;101606.69;10435225;28;20400;-82
2023/01/06 15:04:33;;;;;;;4.63;3.05;;;;;;;9.59;100.00;101607.38;10440512;28;20044;-81
2023/01/06 15:09:33;;;;;;;3.85;2.20;;;;;;;9.64;100.00;101603.34;10416723;28;20037;-82
2023/01/06 15:14:34;;;;;;;3.85;3.00;;;;;;;9.64;100.00;101605.94;10413727;28;20120;-81
2023/01/06 15:19:34;;;;;;;4.53;3.05;;;;;;;9.58;100.00;101613.41;10414112;28;20040;-81
2023/01/06 15:24:38;;;;;;;4.53;2.63;;;;;;;9.57;100.00;101598.53;10416784;28;20134;-81
2023/01/06 15:29:38;;;;;;;8.52;3.60;;;;;;;9.58;100.00;101607.28;10446887;28;20037;-82
2023/01/06 15:34:41;;;;;;;5.32;2.72;;;;;;;9.51;100.00;101609.50;10421166;28;20561;-81
2023/01/06 15:39:41;;;;;;;4.72;3.20;;;;;;;9.48;100.00;101598.88;10413064;28;20199;-81
2023/01/06 15:44:54;;;;;;;5.88;2.78;;;;;;;9.49;100.00;101611.13;10454914;28;20160;-83
2023/01/06 15:49:55;;;;;;;3.97;2.00;;;;;;;9.37;100.00;101597.28;10425950;28;20486;-82
2023/01/06 15:54:58;;;;;;;4.65;3.40;;;;;;;9.35;100.00;101606.72;10406622;28;20046;-82
2023/01/06 16:00:00;;;;;;;3.65;2.53;;;;;;;9.38;100.00;101613.03;10441615;28;20548;-82
2023/01/06 16:05:01;;;;;;;9.07;3.30;;;;;;;9.33;100.00;101601.38;10404611;28;20053;-82
2023/01/06 16:10:01;;;;;;;3.97;2.75;;;;;;;9.10;100.00;101610.34;10387037;28;20116;-81
2023/01/06 16:15:35;;;;;;;5.57;2.83;;;;;;;9.10;100.00;101607.75;10437203;28;20382;-82
2023/01/06 16:20:35;;;;;;;5.10;3.00;;;;;;;9.10;100.00;101603.41;10409922;28;20094;-81
2023/01/06 16:25:36;;;;;;;4.35;2.60;;;;;;;8.93;100.00;101599.69;10477327;28;20548;-82
2023/01/06 16:30:37;;;;;;;4.60;3.00;;;;;;;9.02;100.00;101604.59;10430696;28;20033;-82
2023/01/06 16:35:38;;;;;;;5.75;3.10;;;;;;;9.07;100.00;101597.09;10404400;28;20386;-82
2023/01/06 16:40:39;;;;;;;8.77;3.53;;;;;;;9.08;100.00;101605.00;10404455;28;20037;-82
2023/01/06 16:45:41;;;;;;;6.18;3.78;;;;;;;9.15;100.00;101597.56;10419608;28;20116;-82
2023/01/06 16:50:49;;;;;;;4.85;3.95;;;;;;;9.23;100.00;101615.56;10427066;28;20048;-82
2023/01/06 16:55:51;;;;;;;6.68;3.78;;;;;;;9.25;100.00;101608.72;10439605;28;20037;-82
2023/01/06 17:00:53;;;;;;;;;;;;;;;9.25;100.00;101605.19;10422939;28;20068;-83
2023/01/06 17:05:53;;;;;;;5.40;3.90;;;;;;;9.15;100.00;101594.97;10422891;28;19925;-82
2023/01/06 17:10:54;;;;;;;4.75;3.50;;;;;;;9.16;100.00;101600.31;10440694;28;20099;-82
2023/01/06 17:15:58;;;;;;;7.43;4.82;;;;;;;9.09;100.00;101604.19;10442357;28;20086;-82
2023/01/06 17:21:10;;;;;;;8.05;3.17;;;;;;;8.89;100.00;101602.00;10473341;28;20044;-83
2023/01/06 17:26:13;;;;;;;8.38;3.67;;;;;;;8.81;100.00;101607.59;10415227;28;20038;-82
2023/01/06 17:31:36;;;;;;;4.88;3.00;;;;;;;8.86;100.00;101604.41;10455740;28;20045;-82
2023/01/06 17:36:38;;;;;;;6.95;3.65;;;;;;;8.78;100.00;101599.56;10444255;28;20132;-83
2023/01/06 17:41:38;;;;;;;;;;;;;;;8.77;100.00;101589.94;10434913;28;20033;-82
2023/01/06 17:46:39;;;;;;;3.70;2.33;;;;;;;8.69;100.00;101596.34;10411978;28;19921;-83
2023/01/06 17:51:39;;;;;;;4.55;2.50;;;;;;;8.65;100.00;101604.78;10461901;28;20481;-82
2023/01/06 17:56:40;;;;;;;4.03;2.72;;;;;;;8.63;100.00;101601.16;10444486;28;20110;-82
2023/01/06 18:01:40;;;;;;;4.97;2.88;;;;;;;8.74;100.00;101612.31;10448797;28;20524;-82
2023/01/06 18:06:51;;;;;;;3.78;2.72;;;;;;;8.86;100.00;101614.84;10440876;28;20578;-81
2023/01/06 18:12:01;;;;;;;4.80;2.50;;;;;;;8.91;100.00;101610.81;10410351;28;20116;-82
2023/01/06 18:17:14;;;;;;;8.48;2.80;;;;;;;9.05;100.00;101601.31;10431913;28;20037;-82
2023/01/06 18:22:16;;;;;;;;;;;;;;;9.09;100.00;101595.47;10434114;28;20528;-81
2023/01/06 18:27:24;;;;;;;5.50;2.20;;;;;;;9.21;100.00;101587.53;10401511;28;19928;-81
2023/01/06 18:32:30;;;;;;;3.20;2.28;;;;;;;9.28;100.00;101575.78;10456006;28;20698;-82
2023/01/06 18:37:32;;;;;;;5.30;2.40;;;;;;;9.13;100.00;101589.66;10439598;28;20481;-82
2023/01/06 18:42:36;;;;;;;4.93;2.92;;;;;;;9.05;100.00;101589.13;10440243;28;20048;-82
2023/01/06 18:47:39;;;;;;;5.05;2.38;;;;;;;9.07;100.00;101590.16;10440233;28;20033;-82
2023/01/06 18:52:49;;;;;;;8.30;3.38;;;;;;;9.09;100.00;101593.75;10439563;28;20149;-82
2023/01/06 18:57:54;;;;;;;6.32;2.70;;;;;;;9.22;100.00;101594.56;10430605;28;20527;-81
2023/01/06 19:03:20;;;;;;;4.65;3.03;;;;;;;9.14;100.00;101594.06;10449352;28;20045;-82
2023/01/06 19:08:24;;;;;;;6.70;2.97;;;;;;;9.03;100.00;101590.75;10400989;28;20049;-80
2023/01/06 19:13:26;;;;;;;6.18;4.10;;;;;;;8.93;100.00;101589.25;10452356;28;20041;-82
2023/01/06 19:18:27;;;;;;;8.35;4.45;;;;;;;8.89;100.00;101587.25;10425990;28;20455;-81
2023/01/06 19:23:29;;;;;;;7.13;4.43;;;;;;;8.91;100.00;101584.72;10451274;28;20068;-82
2023/01/06 19:28:31;;;;;;;9.35;4.95;;;;;;;8.95;100.00;101585.03;10461336;28;20071;-81
2023/01/06 19:33:43;;;;;;;6.80;4.05;;;;;;;8.99;100.00;101585.25;10432048;28;20045;-82
2023/01/06 19:38:43;;;;;;;7.00;3.90;;;;;;;8.99;100.00;101585.25;10450352;28;20123;-82
2023/01/06 19:43:44;;;;;;;6.90;3.50;;;;;;;9.11;100.00;101581.69;10485968;28;20085;-82
2023/01/06 19:48:44;;;;;;;5.93;3.05;;;;;;;9.17;100.00;101583.81;10459841;28;20060;-81
2023/01/06 19:54:27;;;;;;;5.18;2.67;;;;;;;9.20;100.00;101577.88;10446757;28;20052;-82
2023/01/06 19:59:32;;;;;;;21.92;5.85;;;;;;;9.21;100.00;101575.38;10470185;28;20048;-82
2023/01/06 20:04:32;;;;;;;4.90;2.88;;;;;;;9.35;100.00;101577.97;10466669;28;20037;-81
2023/01/06 20:09:33;;;;;;;8.02;3.33;;;;;;;9.37;100.00;101569.41;10475007;28;20107;-81
2023/01/06 20:14:33;;;;;;;4.53;2.47;;;;;;;9.45;100.00;101572.53;10448317;28;20041;-82
2023/01/06 20:19:34;;;;;;;6.40;3.80;;;;;;;9.39;100.00;101553.84;10435974;28;20044;-81
2023/01/06 20:24:34;;;;;;;5.07;2.75;;;;;;;9.41;100.00;101565.31;10437543;28;20037;-81
2023/01/06 20:29:35;;;;;;;3.97;2.47;;;;;;;9.45;100.00;101558.56;10408947;28;20405;-82
2023/01/06 20:34:35;;;;;;;4.95;2.90;;;;;;;9.52;100.00;101561.66;10377310;28;20116;-82
2023/01/06 20:39:36;;;;;;;5.20;2.22;;;;;;;9.55;100.00;101540.03;10442892;28;20485;-81
2023/01/06 20:44:37;;;;;;;4.47;2.70;;;;;;;9.54;100.00;101541.75;10419168;28;20129;-82
2023/01/06 20:49:37;;;;;;;3.83;2.33;;;;;;;9.47;100.00;101543.88;10405435;28;20040;-82
2023/01/06 20:54:38;;;;;;;3.85;2.13;;;;;;;9.46;100.00;101548.22;10413098;28;20171;-80
2023/01/06 20:59:38;;;;;;;4.13;2.38;;;;;;;9.48;100.00;101541.38;10420588;28;20038;-81
2023/01/06 21:04:39;;;;;;;4.07;1.92;;;;;;;9.63;100.00;101548.38;10385076;28;20033;-81
2023/01/06 21:09:39;;;;;;;4.72;2.05;;;;;;;9.61;100.00;101539.53;10403382;28;20076;-82
2023/01/06 21:14:40;;;;;;;3.92;2.33;;;;;;;9.63;100.00;101546.66;10434956;28;20067;-82
2023/01/06 21:19:40;;;;;;;5.00;1.77;;;;;;;9.52;100.00;101546.00;10421012;28;20473;-82
2023/01/06 21:24:41;;;;;;;5.03;1.60;;;;;;;9.46;100.00;101544.69;10459935;28;20504;-82
2023/01/06 21:29:42;;;;;;;3.58;1.70;;;;;;;9.34;100.00;101550.06;10442054;28;20124;-82
2023/01/06 21:34:42;;;;;;;2.00;1.35;;;;;;;9.23;100.00;101550.28;10453716;28;20481;-82
2023/01/06 21:39:43;;;;;;;3.40;1.70;;;;;;;9.10;100.00;101550.28;10469037;28;20077;-82
2023/01/06 21:44:43;;;;;;;2.85;1.67;;;;;;;9.04;100.00;101550.78;10446561;28;20363;-84
2023/01/06 21:49:44;;;;;;;3.40;1.65;;;;;;;8.91;100.00;101542.94;10422371;28;20045;-81
2023/01/06 21:54:45;;;;;;;5.03;2.47;;;;;;;8.73;100.00;101551.38;10445333;28;20040;-82
2023/01/06 21:59:45;;;;;;;4.47;1.92;;;;;;;8.75;100.00;101552.38;10440421;28;20097;-81
2023/01/06 22:04:46;;;;;;;4.00;2.22;;;;;;;8.71;100.00;101550.38;10448058;28;20585;-82
2023/01/06 22:09:46;;;;;;;3.90;2.15;;;;;;;8.66;100.00;101550.09;10443724;28;20127;-79
2023/01/06 22:14:50;;;;;;;3.92;1.95;;;;;;;8.50;100.00;101549.88;10423257;28;20043;-82
2023/01/06 22:19:51;;;;;;;6.53;2.50;;;;;;;8.32;100.00;101552.09;10443254;28;20040;-82
2023/01/06 22:24:52;;;;;;;7.55;2.75;;;;;;;8.34;100.00;101555.72;10457068;28;20037;-81
2023/01/06 22:29:52;;;;;;;4.97;2.60;;;;;;;8.48;100.00;101554.03;10437199;28;20047;-82
2023/01/06 22:34:53;;;;;;;5.38;2.45;;;;;;;8.57;100.00;101551.16;10426462;28;20037;-78
2023/01/06 22:39:53;;;;;;;4.38;2.42;;;;;;;8.71;100.00;101550.38;10433718;28;20374;-81
2023/01/06 22:44:55;;;;;;;5.10;3.00;;;;;;;8.74;100.00;101542.75;10471564;28;20561;-81
2023/01/06 22:49:56;;;;;;;5.13;2.77;;;;;;;8.74;100.00;101544.47;10483649;28;20041;-81
2023/01/06 22:54:56;;;;;;;5.27;2.40;;;;;;;8.62;100.00;101529.81;10452602;28;20037;-82
2023/01/06 22:59:58;;;;;;;7.47;3.25;;;;;;;8.57;100.00;101532.91;10468729;28;20068;-81
2023/01/06 23:04:59;;;;;;;7.80;3.22;;;;;;;8.41;100.00;101542.28;10462359;28;20109;-81
2023/01/06 23:09:59;;;;;;;5.15;2.60;;;;;;;8.24;100.00;101546.38;10459050;28;20082;-81
2023/01/06 23:15:00;;;;;;;6.28;5.15;;;;;;;8.13;100.00;101550.84;10448362;28;20072;-82
2023/01/06 23:20:00;;;;;;;6.55;3.70;;;;;;;8.07;100.00;101550.41;10471507;28;20041;-81
2023/01/06 23:25:01;;;;;;;5.07;3.08;;;;;;;8.19;100.00;101553.88;10447258;28;20037;-83
2023/01/06 23:30:02;;;;;;;7.95;4.18;;;;;;;8.28;100.00;101550.06;10430000;28;20508;-83